Time;durP1;ratioP1;P1;durP2;ratioP2;P2;SDS_P1;SDS_P2;PMS_P1;PMS_P2;Temp;Humidity;BMP_temperature;BMP_pressure;BME280_temperature;BME280_humidity;BME280_pressure;Samples;Min_cycle;Max_cycle;Signal;HPM_P1;HPM_P2
2023/07/22 00:02:31;;;;;;;10.20;6.25;;;14.70;99.90;;;;;;5034542;28;20053;-66
2023/07/22 00:04:59;;;;;;;11.48;7.07;;;14.70;99.90;;;;;;5018728;28;20536;-67
2023/07/22 00:07:25;;;;;;;11.95;6.38;;;14.70;99.90;;;;;;5034684;28;20052;-67
2023/07/22 00:09:53;;;;;;;9.95;6.18;;;14.60;99.90;;;;;;5034700;28;20045;-66
2023/07/22 00:12:19;;;;;;;11.70;6.10;;;14.70;99.90;;;;;;5034161;28;20052;-66
2023/07/22 00:14:45;;;;;;;10.57;6.20;;;14.60;99.90;;;;;;5034684;28;20436;-66
2023/07/22 00:17:12;;;;;;;11.77;6.55;;;14.60;99.90;;;;;;5049152;28;20064;-67
2023/07/22 00:19:39;;;;;;;11.07;5.82;;;14.60;99.90;;;;;;5052178;28;20087;-68
2023/07/22 00:22:06;;;;;;;10.65;5.95;;;14.50;99.90;;;;;;5051842;28;20099;-66
2023/07/22 00:24:32;;;;;;;10.13;6.53;;;14.50;99.90;;;;;;5018249;28;20458;-67
2023/07/22 00:26:58;;;;;;;9.85;6.45;;;14.50;99.90;;;;;;5031764;28;20048;-66
2023/07/22 00:29:25;;;;;;;10.82;6.25;;;14.50;99.90;;;;;;5034491;28;20060;-66
2023/07/22 00:31:51;;;;;;;11.15;6.25;;;14.40;99.90;;;;;;5027408;28;20041;-66
2023/07/22 00:34:17;;;;;;;11.50;5.95;;;14.40;99.90;;;;;;5052022;28;20053;-66
2023/07/22 00:36:51;;;;;;;9.65;6.50;;;14.30;99.90;;;;;;5032792;28;20045;-66
2023/07/22 00:39:18;;;;;;;9.00;5.90;;;14.30;99.90;;;;;;5033983;28;20063;-66
2023/07/22 00:41:47;;;;;;;10.77;6.25;;;14.30;99.90;;;;;;5051594;28;20057;-67
2023/07/22 00:44:14;;;;;;;11.32;6.40;;;14.30;99.90;;;;;;5052078;28;20134;-66
2023/07/22 00:46:57;;;;;;;11.82;6.18;;;14.30;99.90;;;;;;5050117;28;20126;-67
2023/07/22 00:49:26;;;;;;;10.48;6.18;;;14.30;99.90;;;;;;5051896;28;20102;-66
2023/07/22 00:52:01;;;;;;;9.82;6.18;;;14.30;99.90;;;;;;5051363;28;20055;-65
2023/07/22 00:54:27;;;;;;;11.48;6.45;;;14.30;99.90;;;;;;5051896;28;20048;-65
2023/07/22 00:56:54;;;;;;;11.93;6.05;;;14.40;99.90;;;;;;5051302;28;20361;-66
2023/07/22 00:59:21;;;;;;;9.98;6.22;;;14.40;99.90;;;;;;5033803;28;20492;-66
2023/07/22 01:01:47;;;;;;;10.13;6.25;;;14.40;99.90;;;;;;5051041;28;20091;-66
2023/07/22 01:04:15;;;;;;;9.90;6.03;;;14.40;99.90;;;;;;5033769;28;20068;-65
2023/07/22 01:06:44;;;;;;;13.38;6.70;;;14.40;99.90;;;;;;5017010;28;20049;-67
2023/07/22 01:09:10;;;;;;;11.93;6.65;;;14.40;99.90;;;;;;5034210;28;20446;-66
2023/07/22 01:11:37;;;;;;;10.57;6.85;;;14.50;99.90;;;;;;5016878;28;20341;-66
2023/07/22 01:14:03;;;;;;;12.45;6.85;;;14.50;99.90;;;;;;5051524;28;20049;-66
2023/07/22 01:16:30;;;;;;;14.10;6.40;;;14.40;99.90;;;;;;5017022;28;20045;-66
2023/07/22 01:18:56;;;;;;;13.75;6.55;;;14.40;99.90;;;;;;5033621;28;20409;-67
2023/07/22 01:21:24;;;;;;;10.52;6.80;;;14.40;99.90;;;;;;5033259;28;20049;-67
2023/07/22 01:23:51;;;;;;;12.32;7.15;;;14.40;99.90;;;;;;5033957;28;20115;-66
2023/07/22 01:26:18;;;;;;;10.50;6.63;;;14.40;99.90;;;;;;5033718;28;20393;-66
2023/07/22 01:28:44;;;;;;;9.50;6.38;;;14.40;99.90;;;;;;5033678;28;20065;-66
2023/07/22 01:31:11;;;;;;;11.10;6.55;;;14.40;99.90;;;;;;5016996;28;20061;-66
2023/07/22 01:33:38;;;;;;;10.13;7.03;;;14.50;99.90;;;;;;5017305;28;20489;-66
2023/07/22 01:36:04;;;;;;;9.98;6.10;;;14.50;99.90;;;;;;5020107;28;20058;-67
2023/07/22 01:38:31;;;;;;;11.05;6.32;;;14.50;99.90;;;;;;5013744;28;20049;-66
2023/07/22 01:40:57;;;;;;;10.57;6.97;;;14.50;99.90;;;;;;4997307;28;20061;-67
2023/07/22 01:43:24;;;;;;;10.48;6.28;;;14.50;99.90;;;;;;4997473;28;20120;-65
2023/07/22 01:45:50;;;;;;;14.18;6.88;;;14.50;99.90;;;;;;5013070;28;20065;-66
2023/07/22 01:48:17;;;;;;;10.80;6.82;;;14.50;99.90;;;;;;4997487;28;20140;-66
2023/07/22 01:50:43;;;;;;;11.02;6.32;;;14.50;99.90;;;;;;4997618;28;20053;-67
2023/07/22 01:53:10;;;;;;;15.20;7.47;;;14.50;99.90;;;;;;4981647;28;20045;-66
2023/07/22 01:55:36;;;;;;;11.90;7.00;;;14.50;99.90;;;;;;4997925;28;20046;-66
2023/07/22 01:58:03;;;;;;;15.65;7.43;;;14.50;99.90;;;;;;5016651;28;20284;-66
2023/07/22 02:00:29;;;;;;;14.57;7.05;;;14.50;99.90;;;;;;5017606;28;20053;-67
2023/07/22 02:02:56;;;;;;;12.57;7.25;;;14.60;99.90;;;;;;5016840;28;20076;-66
2023/07/22 02:05:22;;;;;;;12.60;7.82;;;14.50;99.90;;;;;;5034863;28;20057;-67
2023/07/22 02:07:50;;;;;;;13.38;8.25;;;14.50;99.90;;;;;;5016895;28;20112;-66
2023/07/22 02:10:17;;;;;;;12.40;7.53;;;14.50;99.90;;;;;;5034506;28;20061;-66
2023/07/22 02:12:43;;;;;;;11.88;7.25;;;14.50;99.90;;;;;;5016671;28;20053;-67
2023/07/22 02:15:11;;;;;;;13.48;8.18;;;14.50;99.90;;;;;;5000947;28;20501;-66
2023/07/22 02:17:37;;;;;;;12.82;8.80;;;14.40;99.90;;;;;;5019136;28;20348;-66
2023/07/22 02:20:04;;;;;;;13.65;8.52;;;14.40;99.90;;;;;;5014732;28;20053;-67
2023/07/22 02:22:30;;;;;;;12.23;7.93;;;14.40;99.90;;;;;;4996870;28;20071;-67
2023/07/22 02:24:57;;;;;;;16.98;8.32;;;14.30;99.90;;;;;;4997354;28;20097;-67
2023/07/22 02:27:24;;;;;;;13.00;8.25;;;14.30;99.90;;;;;;5010849;28;20060;-66
2023/07/22 02:29:51;;;;;;;14.55;8.38;;;14.20;99.90;;;;;;5016689;28;20041;-66
2023/07/22 02:32:18;;;;;;;12.35;8.07;;;14.20;99.90;;;;;;5016287;28;20049;-66
2023/07/22 02:34:44;;;;;;;15.32;8.25;;;14.10;99.90;;;;;;5000321;28;20120;-65
2023/07/22 02:37:10;;;;;;;14.02;8.15;;;14.20;99.90;;;;;;5013915;28;20041;-66
2023/07/22 02:39:37;;;;;;;13.13;8.35;;;14.30;99.90;;;;;;5016840;28;20053;-66
2023/07/22 02:42:03;;;;;;;13.38;7.78;;;14.30;99.90;;;;;;5016125;28;20458;-66
2023/07/22 02:44:31;;;;;;;11.90;8.18;;;14.30;99.90;;;;;;5016786;28;20053;-66
2023/07/22 02:46:58;;;;;;;13.68;8.32;;;14.20;99.90;;;;;;5024564;28;20533;-67
2023/07/22 02:49:24;;;;;;;12.52;8.43;;;14.20;99.90;;;;;;5014474;28;20050;-67
2023/07/22 02:52:29;;;;;;;13.52;8.60;;;14.10;99.90;;;;;;5013485;28;20049;-66
2023/07/22 02:55:04;;;;;;;14.75;9.10;;;14.10;99.90;;;;;;4996930;28;20387;-67
2023/07/22 02:57:31;;;;;;;12.65;8.35;;;14.10;99.90;;;;;;5027682;28;20045;-66
2023/07/22 02:59:57;;;;;;;15.20;9.00;;;14.10;99.90;;;;;;5032509;28;20049;-67
2023/07/22 03:02:23;;;;;;;13.57;8.02;;;14.00;99.90;;;;;;5013749;28;20327;-67
2023/07/22 03:04:50;;;;;;;13.90;8.57;;;14.00;99.90;;;;;;5013704;28;20053;-67
2023/07/22 03:07:16;;;;;;;13.65;8.77;;;14.00;99.90;;;;;;5025438;28;20064;-67
2023/07/22 03:09:42;;;;;;;15.13;9.00;;;14.00;99.90;;;;;;5033580;28;20454;-68
2023/07/22 03:12:08;;;;;;;12.32;7.97;;;13.90;99.90;;;;;;5015487;28;20470;-67
2023/07/22 03:14:37;;;;;;;13.63;8.55;;;14.00;99.90;;;;;;5033551;28;20099;-68
2023/07/22 03:17:06;;;;;;;16.48;9.73;;;14.00;99.90;;;;;;5023495;28;20173;-67
2023/07/22 03:19:32;;;;;;;14.48;8.73;;;14.00;99.90;;;;;;5013070;28;20396;-67
2023/07/22 03:21:58;;;;;;;13.48;8.13;;;14.00;99.90;;;;;;4995921;28;20050;-67
2023/07/22 03:24:25;;;;;;;12.77;7.95;;;14.00;99.90;;;;;;4996586;28;20061;-67
2023/07/22 03:27:06;;;;;;;14.60;8.82;;;14.00;99.90;;;;;;5023308;28;20378;-67
2023/07/22 03:29:33;;;;;;;13.05;8.05;;;14.10;99.90;;;;;;5015713;28;20045;-68
2023/07/22 03:31:59;;;;;;;13.27;8.30;;;14.10;99.90;;;;;;5015475;28;20045;-67
2023/07/22 03:34:27;;;;;;;14.50;8.88;;;14.10;99.90;;;;;;5033270;28;20282;-68
2023/07/22 03:36:53;;;;;;;13.27;8.32;;;14.10;99.90;;;;;;5043387;28;20068;-67
2023/07/22 03:39:20;;;;;;;14.38;8.90;;;14.20;99.90;;;;;;5033102;28;20057;-67
2023/07/22 03:41:46;;;;;;;12.90;8.68;;;14.20;99.90;;;;;;5032711;28;20123;-68
2023/07/22 03:44:12;;;;;;;13.02;9.02;;;14.10;99.90;;;;;;5032975;28;20045;-68
2023/07/22 03:46:39;;;;;;;13.88;8.65;;;14.20;99.90;;;;;;5039045;28;20049;-67
2023/07/22 03:49:05;;;;;;;13.05;8.35;;;14.20;99.90;;;;;;5052791;28;20048;-68
2023/07/22 03:51:33;;;;;;;14.40;8.65;;;14.10;99.90;;;;;;5051825;28;20374;-68
2023/07/22 03:53:59;;;;;;;15.98;8.45;;;14.10;99.90;;;;;;5052653;28;20072;-68
2023/07/22 03:56:26;;;;;;;15.13;8.23;;;14.00;99.90;;;;;;5048251;28;20056;-68
2023/07/22 03:58:52;;;;;;;15.05;8.68;;;14.10;99.90;;;;;;5032756;28;20057;-68
2023/07/22 04:01:19;;;;;;;15.98;9.20;;;14.10;99.90;;;;;;5032090;28;20060;-68
2023/07/22 04:03:45;;;;;;;17.08;10.02;;;14.10;99.90;;;;;;5032439;28;20164;-68
2023/07/22 04:06:11;;;;;;;15.18;9.50;;;14.10;99.90;;;;;;5034640;28;20057;-68
2023/07/22 04:08:38;;;;;;;17.40;9.93;;;14.10;99.90;;;;;;5052268;28;20080;-68
2023/07/22 04:11:04;;;;;;;15.13;9.55;;;14.10;99.90;;;;;;5051828;28;20049;-69
2023/07/22 04:13:30;;;;;;;16.40;9.68;;;14.10;99.90;;;;;;5034667;28;20045;-68
2023/07/22 04:15:57;;;;;;;16.20;9.23;;;14.10;99.90;;;;;;5051879;28;20048;-68
2023/07/22 04:18:23;;;;;;;18.30;11.52;;;14.10;99.90;;;;;;5032469;28;20115;-68
2023/07/22 04:20:57;;;;;;;16.23;10.43;;;14.20;99.90;;;;;;5031626;28;20045;-68
2023/07/22 04:23:23;;;;;;;18.75;11.00;;;14.30;99.90;;;;;;5032543;28;20053;-68
2023/07/22 04:25:49;;;;;;;16.02;10.52;;;14.20;99.90;;;;;;5032144;28;20053;-67
2023/07/22 04:28:16;;;;;;;15.85;10.25;;;14.20;99.90;;;;;;5032833;28;20065;-68
2023/07/22 04:30:43;;;;;;;16.83;10.65;;;14.10;99.90;;;;;;5014218;28;20524;-68
2023/07/22 04:33:12;;;;;;;18.08;10.70;;;14.10;99.90;;;;;;5032140;28;20458;-68
2023/07/22 04:35:41;;;;;;;16.02;10.20;;;14.20;99.90;;;;;;5031529;28;20286;-68
2023/07/22 04:38:22;;;;;;;16.13;10.57;;;14.20;99.90;;;;;;5052198;28;20053;-68
2023/07/22 04:40:49;;;;;;;18.73;11.10;;;14.20;99.90;;;;;;5034055;28;20051;-68
2023/07/22 04:43:16;;;;;;;17.67;10.52;;;14.20;99.90;;;;;;5051863;28;20428;-69
2023/07/22 04:45:48;;;;;;;18.45;10.38;;;14.10;99.90;;;;;;5051943;28;20056;-68
2023/07/22 04:48:20;;;;;;;18.45;10.40;;;14.20;99.90;;;;;;5033617;28;20493;-68
2023/07/22 04:50:47;;;;;;;19.20;10.25;;;14.20;99.90;;;;;;5051300;28;20064;-68
2023/07/22 04:53:13;;;;;;;15.88;10.25;;;14.20;99.90;;;;;;5051824;28;20250;-68
2023/07/22 04:55:40;;;;;;;17.70;10.68;;;14.10;99.90;;;;;;5051453;28;20052;-68
2023/07/22 04:58:08;;;;;;;15.85;9.80;;;14.20;99.90;;;;;;5033658;28;20041;-68
2023/07/22 05:00:34;;;;;;;17.15;10.63;;;14.20;99.90;;;;;;5031026;28;20437;-68
2023/07/22 05:03:01;;;;;;;17.17;9.40;;;14.10;99.90;;;;;;5031571;28;20049;-68
2023/07/22 05:05:27;;;;;;;14.70;9.57;;;14.10;99.90;;;;;;5031587;28;20057;-67
2023/07/22 05:07:53;;;;;;;17.65;10.30;;;14.10;99.90;;;;;;5047303;28;20045;-68
2023/07/22 05:10:19;;;;;;;18.35;9.75;;;14.10;99.90;;;;;;5051238;28;20053;-67
2023/07/22 05:12:59;;;;;;;16.98;10.18;;;14.20;99.90;;;;;;5021442;28;20056;-68
2023/07/22 05:15:25;;;;;;;17.75;10.07;;;14.30;99.90;;;;;;5051525;28;20056;-68
2023/07/22 05:17:51;;;;;;;17.05;10.40;;;14.20;99.90;;;;;;5035084;28;20461;-67
2023/07/22 05:20:17;;;;;;;19.20;9.85;;;14.20;99.90;;;;;;5013813;28;20089;-67
2023/07/22 05:22:44;;;;;;;21.77;10.75;;;14.30;99.90;;;;;;5034195;28;20045;-68
2023/07/22 05:25:10;;;;;;;19.77;10.07;;;14.30;99.90;;;;;;5018069;28;20049;-68
2023/07/22 05:27:40;;;;;;;18.25;10.35;;;14.30;99.90;;;;;;5032969;28;20076;-67
2023/07/22 05:30:07;;;;;;;17.70;10.65;;;14.30;99.90;;;;;;5055334;28;20053;-68
2023/07/22 05:32:33;;;;;;;14.90;9.95;;;14.30;99.90;;;;;;5054817;28;20119;-67
2023/07/22 05:35:01;;;;;;;19.75;10.00;;;14.30;99.90;;;;;;5051451;28;20350;-68
2023/07/22 05:37:27;;;;;;;17.88;10.48;;;14.30;99.90;;;;;;5034332;28;20056;-67
2023/07/22 05:39:53;;;;;;;16.25;10.63;;;14.20;99.90;;;;;;5035383;28;20053;-68
2023/07/22 05:42:20;;;;;;;18.63;9.93;;;14.30;99.90;;;;;;5016998;28;20510;-67
2023/07/22 05:44:48;;;;;;;17.17;10.98;;;14.30;99.90;;;;;;5035218;28;20438;-68
2023/07/22 05:47:14;;;;;;;18.65;10.88;;;14.20;99.90;;;;;;5024819;28;20045;-69
2023/07/22 05:49:41;;;;;;;19.05;11.50;;;14.30;99.90;;;;;;4997973;28;20065;-69
2023/07/22 05:52:07;;;;;;;18.42;11.00;;;14.20;99.90;;;;;;4997305;28;20108;-68
2023/07/22 05:54:34;;;;;;;18.27;10.75;;;14.20;99.90;;;;;;4997724;28;20057;-69
2023/07/22 05:57:00;;;;;;;19.15;12.13;;;14.10;99.90;;;;;;5006704;28;20285;-68
2023/07/22 05:59:26;;;;;;;18.45;11.02;;;14.10;99.90;;;;;;5017934;28;20449;-69
2023/07/22 06:01:52;;;;;;;21.52;11.55;;;14.20;99.90;;;;;;5016910;28;20053;-69
2023/07/22 06:04:19;;;;;;;19.83;11.50;;;14.10;99.90;;;;;;5017258;28;20052;-68
2023/07/22 06:06:45;;;;;;;22.08;12.52;;;14.20;99.90;;;;;;5034436;28;20060;-69
2023/07/22 06:09:11;;;;;;;21.85;12.15;;;14.10;99.90;;;;;;5017558;28;20064;-68
2023/07/22 06:11:38;;;;;;;20.25;11.70;;;14.10;99.90;;;;;;5034617;28;20402;-69
2023/07/22 06:14:05;;;;;;;20.38;11.93;;;14.20;99.90;;;;;;5034719;28;20064;-69
2023/07/22 06:16:31;;;;;;;20.27;11.38;;;14.30;99.90;;;;;;5030183;28;20057;-69
2023/07/22 06:18:58;;;;;;;20.05;12.18;;;14.20;99.90;;;;;;5014720;28;20054;-68
2023/07/22 06:21:24;;;;;;;22.40;12.45;;;14.30;99.90;;;;;;4996797;28;20053;-69
2023/07/22 06:23:51;;;;;;;22.38;12.73;;;14.40;99.90;;;;;;5014754;28;20061;-69
2023/07/22 06:26:17;;;;;;;21.23;12.75;;;14.40;99.90;;;;;;5016280;28;20099;-68
2023/07/22 06:28:43;;;;;;;22.83;13.05;;;14.50;99.90;;;;;;5034555;28;20056;-68
2023/07/22 06:31:09;;;;;;;22.73;13.38;;;14.60;99.90;;;;;;5033730;28;20053;-67
2023/07/22 06:33:36;;;;;;;22.70;12.80;;;14.70;99.90;;;;;;5033627;28;20049;-67
2023/07/22 06:36:02;;;;;;;24.45;13.48;;;14.80;99.90;;;;;;5028170;28;20115;-67
2023/07/22 06:38:29;;;;;;;25.17;13.30;;;14.90;99.90;;;;;;5036780;28;20049;-68
2023/07/22 06:40:55;;;;;;;29.77;15.38;;;15.00;99.90;;;;;;5053868;28;20211;-68
2023/07/22 06:43:21;;;;;;;25.92;14.85;;;15.00;99.90;;;;;;5054037;28;20449;-68
2023/07/22 06:45:48;;;;;;;22.58;14.85;;;15.30;99.90;;;;;;5053889;28;20431;-68
2023/07/22 06:48:14;;;;;;;25.42;14.20;;;15.40;99.90;;;;;;5035904;28;20405;-69
2023/07/22 06:50:47;;;;;;;25.63;15.00;;;15.50;99.90;;;;;;5053500;28;20053;-68
2023/07/22 06:53:14;;;;;;;24.38;15.48;;;15.50;99.90;;;;;;5057962;28;20037;-68
2023/07/22 06:55:49;;;;;;;24.85;14.40;;;15.50;99.90;;;;;;5063441;28;20041;-67
2023/07/22 06:58:15;;;;;;;24.77;14.35;;;15.70;99.90;;;;;;5058537;28;20055;-69
2023/07/22 07:00:41;;;;;;;23.23;13.75;;;15.70;99.90;;;;;;5056083;28;20412;-69
2023/07/22 07:03:07;;;;;;;22.95;14.63;;;15.70;99.90;;;;;;5053718;28;20053;-69
2023/07/22 07:05:34;;;;;;;22.77;13.60;;;15.60;99.90;;;;;;5053393;28;20052;-69
2023/07/22 07:08:01;;;;;;;20.08;13.13;;;15.70;99.90;;;;;;5052762;28;20109;-68
2023/07/22 07:10:27;;;;;;;22.30;13.98;;;15.60;99.90;;;;;;5053172;28;20044;-67
2023/07/22 07:12:53;;;;;;;25.08;13.98;;;15.70;99.90;;;;;;5053975;28;20040;-69
2023/07/22 07:15:22;;;;;;;23.27;14.27;;;15.70;99.90;;;;;;5053311;28;20464;-68
2023/07/22 07:18:02;;;;;;;22.92;13.95;;;15.90;99.90;;;;;;5017834;28;20052;-68
2023/07/22 07:20:28;;;;;;;23.48;13.90;;;15.80;99.90;;;;;;5032920;28;20057;-68
2023/07/22 07:22:54;;;;;;;23.88;13.73;;;15.90;99.90;;;;;;5033464;28;20404;-68
2023/07/22 07:25:21;;;;;;;22.75;13.23;;;16.00;99.90;;;;;;5033374;28;20053;-69
2023/07/22 07:27:48;;;;;;;22.45;13.18;;;15.90;99.90;;;;;;5029926;28;20064;-69
2023/07/22 07:30:14;;;;;;;18.05;12.05;;;16.00;99.90;;;;;;5052652;28;20358;-68
2023/07/22 07:32:40;;;;;;;20.40;12.68;;;16.00;99.90;;;;;;5053071;28;20045;-69
2023/07/22 07:35:07;;;;;;;19.98;12.77;;;16.10;99.90;;;;;;5052754;28;20076;-69
2023/07/22 07:37:33;;;;;;;21.60;12.75;;;16.10;99.90;;;;;;5034652;28;20049;-68
2023/07/22 07:39:59;;;;;;;22.63;12.15;;;16.20;99.90;;;;;;5035728;28;20060;-68
2023/07/22 07:42:27;;;;;;;19.33;11.40;;;16.20;99.90;;;;;;5052320;28;20495;-69
2023/07/22 07:44:54;;;;;;;17.30;10.07;;;16.20;99.90;;;;;;5052635;28;20041;-69
2023/07/22 07:47:20;;;;;;;19.52;11.73;;;16.30;99.90;;;;;;5051905;28;20118;-68
2023/07/22 07:49:46;;;;;;;17.25;10.60;;;16.30;99.90;;;;;;5052747;28;20207;-69
2023/07/22 07:52:13;;;;;;;15.82;10.80;;;16.40;99.90;;;;;;5052403;28;20041;-68
2023/07/22 07:54:39;;;;;;;18.30;11.80;;;16.50;99.90;;;;;;5052662;28;20049;-69
2023/07/22 07:57:06;;;;;;;19.85;12.13;;;16.50;99.90;;;;;;5044728;28;20465;-68
2023/07/22 07:59:32;;;;;;;17.35;11.43;;;16.50;99.90;;;;;;5032811;28;20501;-69
2023/07/22 08:01:58;;;;;;;17.58;11.85;;;16.60;99.90;;;;;;5033680;28;20049;-69
2023/07/22 08:04:24;;;;;;;17.00;11.32;;;16.50;99.90;;;;;;5052707;28;20083;-70
2023/07/22 08:06:50;;;;;;;19.25;11.40;;;16.50;99.90;;;;;;5051903;28;20044;-69
2023/07/22 08:09:19;;;;;;;18.95;11.77;;;16.60;99.90;;;;;;5052546;28;20134;-69
2023/07/22 08:11:45;;;;;;;19.75;12.35;;;16.50;99.90;;;;;;5034007;28;20107;-69
2023/07/22 08:14:12;;;;;;;17.20;11.27;;;16.60;99.90;;;;;;5041746;28;20072;-68
2023/07/22 08:16:38;;;;;;;17.42;10.85;;;16.50;99.90;;;;;;5058627;28;20516;-68
2023/07/22 08:19:05;;;;;;;17.80;11.35;;;16.40;99.90;;;;;;5043715;28;20037;-69
2023/07/22 08:21:31;;;;;;;18.58;11.48;;;16.50;99.90;;;;;;5060715;28;20048;-69
2023/07/22 08:23:57;;;;;;;19.92;12.13;;;16.40;99.90;;;;;;5061719;28;20049;-68
2023/07/22 08:26:24;;;;;;;17.95;11.20;;;16.30;99.90;;;;;;5059491;28;20049;-69
2023/07/22 08:28:50;;;;;;;15.75;10.05;;;16.30;99.90;;;;;;5043247;28;20044;-69
2023/07/22 08:31:16;;;;;;;17.45;10.95;;;16.30;99.90;;;;;;5053558;28;20053;-69
2023/07/22 08:33:43;;;;;;;13.75;9.50;;;16.30;99.90;;;;;;5051888;28;20457;-68
2023/07/22 08:36:09;;;;;;;18.17;10.07;;;16.30;99.90;;;;;;5057228;28;20067;-68
2023/07/22 08:38:42;;;;;;;15.98;10.10;;;16.30;99.90;;;;;;5058949;28;20098;-69
2023/07/22 08:41:09;;;;;;;17.90;11.10;;;16.40;99.90;;;;;;5052402;28;20045;-68
2023/07/22 08:43:40;;;;;;;14.55;10.23;;;16.60;99.90;;;;;;5033878;28;20064;-70
2023/07/22 08:46:07;;;;;;;14.48;9.43;;;16.70;99.90;;;;;;5031475;28;20052;-69
2023/07/22 08:48:36;;;;;;;15.25;10.10;;;16.90;99.90;;;;;;5037636;28;20076;-68
2023/07/22 08:51:05;;;;;;;16.83;9.93;;;16.90;99.90;;;;;;5050810;28;20421;-69
2023/07/22 08:53:33;;;;;;;15.60;10.07;;;17.00;99.90;;;;;;5033944;28;20084;-69
2023/07/22 08:56:01;;;;;;;16.23;11.10;;;17.00;99.90;;;;;;5033545;28;20432;-69
2023/07/22 08:58:28;;;;;;;17.05;10.02;;;17.10;99.90;;;;;;5034013;28;20056;-67
2023/07/22 09:00:55;;;;;;;17.83;10.30;;;17.10;99.90;;;;;;5033816;28;20469;-70
2023/07/22 09:03:23;;;;;;;19.95;10.73;;;17.30;99.90;;;;;;5051038;28;20049;-69
2023/07/22 09:05:50;;;;;;;16.30;11.65;;;17.50;99.90;;;;;;5050912;28;20045;-69
2023/07/22 09:08:17;;;;;;;19.08;12.48;;;17.70;99.90;;;;;;5050541;28;21116;-69
2023/07/22 09:10:44;;;;;;;15.27;10.27;;;17.90;99.90;;;;;;5033264;28;20044;-69
2023/07/22 09:13:12;;;;;;;18.42;11.32;;;18.10;99.90;;;;;;5051188;28;20441;-68
2023/07/22 09:15:39;;;;;;;17.50;10.38;;;18.30;99.90;;;;;;5050958;28;20044;-68
2023/07/22 09:18:06;;;;;;;16.33;10.10;;;18.20;99.90;;;;;;5050257;28;20041;-67
2023/07/22 09:20:34;;;;;;;17.38;11.65;;;18.40;99.90;;;;;;5050282;28;20045;-69
2023/07/22 09:23:01;;;;;;;16.10;10.57;;;18.50;99.90;;;;;;5051578;28;20045;-69
2023/07/22 09:25:28;;;;;;;16.85;11.57;;;18.60;99.90;;;;;;5051195;28;20053;-67
2023/07/22 09:27:57;;;;;;;14.63;9.50;;;18.60;99.90;;;;;;5048935;28;20119;-67
2023/07/22 09:30:34;;;;;;;15.77;11.05;;;18.60;99.90;;;;;;5051329;28;20587;-67
2023/07/22 09:33:02;;;;;;;14.85;10.07;;;18.50;99.90;;;;;;5051762;28;20045;-69
2023/07/22 09:35:44;;;;;;;18.08;10.88;;;18.40;99.90;;;;;;5050706;28;20469;-68
2023/07/22 09:38:11;;;;;;;15.70;9.77;;;18.30;99.90;;;;;;5050808;28;20048;-69
2023/07/22 09:40:40;;;;;;;15.40;10.23;;;18.20;99.90;;;;;;5033437;28;20067;-69
2023/07/22 09:43:10;;;;;;;15.38;10.02;;;18.20;99.90;;;;;;5051275;28;20064;-68
2023/07/22 09:45:37;;;;;;;14.30;9.57;;;18.10;99.90;;;;;;5051592;28;20358;-68
2023/07/22 09:48:04;;;;;;;16.58;10.68;;;18.10;99.90;;;;;;5050716;28;20420;-69
2023/07/22 09:50:30;;;;;;;16.52;10.43;;;18.10;99.90;;;;;;5050612;28;20041;-68
2023/07/22 09:52:59;;;;;;;15.88;10.52;;;18.20;99.90;;;;;;5051509;28;20049;-68
2023/07/22 09:55:30;;;;;;;16.45;10.25;;;18.30;99.90;;;;;;5051359;28;20102;-69
2023/07/22 09:58:01;;;;;;;15.32;10.27;;;18.30;99.90;;;;;;5048761;28;20037;-69
2023/07/22 10:00:33;;;;;;;14.48;10.30;;;18.40;99.90;;;;;;5049922;28;20075;-67
2023/07/22 10:03:01;;;;;;;14.70;10.20;;;18.50;99.90;;;;;;5050681;28;20106;-67
2023/07/22 10:05:31;;;;;;;17.05;9.48;;;18.60;99.90;;;;;;5050534;28;20215;-67
2023/07/22 10:07:58;;;;;;;14.85;9.38;;;18.60;99.90;;;;;;5050654;28;20045;-68
2023/07/22 10:10:37;;;;;;;13.95;8.63;;;18.70;99.90;;;;;;5052436;28;20662;-67
2023/07/22 10:13:04;;;;;;;12.77;9.05;;;18.80;99.90;;;;;;5054648;28;20056;-67
2023/07/22 10:15:35;;;;;;;16.02;8.65;;;18.80;99.90;;;;;;5053088;28;20049;-66
2023/07/22 10:18:04;;;;;;;13.60;8.82;;;18.80;99.90;;;;;;5053815;28;20075;-67
2023/07/22 10:20:34;;;;;;;12.15;7.93;;;18.90;99.90;;;;;;5052923;28;20075;-69
2023/07/22 10:23:01;;;;;;;12.20;7.63;;;18.90;99.90;;;;;;5054490;28;20045;-66
2023/07/22 10:25:27;;;;;;;10.35;6.80;;;18.80;99.90;;;;;;5053968;28;20461;-68
2023/07/22 10:27:54;;;;;;;11.65;7.03;;;18.80;99.90;;;;;;5040991;28;20041;-67
2023/07/22 10:30:20;;;;;;;9.43;6.57;;;18.70;99.90;;;;;;5048330;28;20152;-66
2023/07/22 10:32:52;;;;;;;10.07;7.28;;;18.60;99.90;;;;;;5054134;28;20056;-68
2023/07/22 10:35:30;;;;;;;10.05;7.20;;;18.50;99.90;;;;;;5053721;28;20477;-67
2023/07/22 10:38:11;;;;;;;7.90;5.22;;;18.30;99.90;;;;;;5053374;28;20056;-68
2023/07/22 10:40:45;;;;;;;8.73;5.85;;;18.00;99.90;;;;;;5034760;28;20048;-67
2023/07/22 10:43:17;;;;;;;9.57;6.47;;;17.50;99.90;;;;;;5019969;28;20056;-67
2023/07/22 10:45:53;;;;;;;10.80;6.88;;;17.30;99.90;;;;;;5036374;28;20049;-67
2023/07/22 10:48:20;;;;;;;15.10;7.07;;;17.20;99.90;;;;;;5034650;28;20049;-70
2023/07/22 10:50:51;;;;;;;11.93;7.55;;;16.90;99.90;;;;;;5016965;28;20270;-69
2023/07/22 10:53:23;;;;;;;16.90;7.55;;;16.70;99.90;;;;;;5036430;28;20052;-69
2023/07/22 10:56:11;;;;;;;17.63;10.88;;;16.60;99.90;;;;;;5036493;28;20095;-68
2023/07/22 10:58:47;;;;;;;10.30;8.40;;;16.60;99.90;;;;;;5035721;28;20053;-67
2023/07/22 11:01:27;;;;;;;12.60;9.18;;;16.60;99.90;;;;;;5019361;28;20048;-67
2023/07/22 11:04:06;;;;;;;12.43;8.98;;;16.60;99.90;;;;;;5019559;28;20049;-69
2023/07/22 11:06:48;;;;;;;12.52;9.70;;;16.70;99.90;;;;;;5033993;28;20075;-68
2023/07/22 11:09:30;;;;;;;15.55;11.25;;;16.80;99.90;;;;;;5016398;28;20109;-68
2023/07/22 11:12:10;;;;;;;13.30;10.65;;;16.90;99.90;;;;;;5033042;28;20122;-69
2023/07/22 11:15:02;;;;;;;15.35;10.90;;;17.00;99.90;;;;;;5033669;28;20100;-69
2023/07/22 11:17:32;;;;;;;14.10;10.27;;;17.10;99.90;;;;;;5026547;28;20049;-68
2023/07/22 11:20:02;;;;;;;13.45;10.25;;;17.20;99.90;;;;;;5052341;28;20556;-68
2023/07/22 11:22:30;;;;;;;11.68;9.68;;;17.20;99.90;;;;;;5019583;28;20059;-69
2023/07/22 11:24:59;;;;;;;12.18;9.50;;;17.20;99.90;;;;;;5035649;28;20068;-68
2023/07/22 11:27:26;;;;;;;13.07;9.93;;;17.20;99.90;;;;;;5052372;28;20071;-68
2023/07/22 11:29:52;;;;;;;12.18;9.75;;;17.30;99.90;;;;;;5052775;28;20048;-68
2023/07/22 11:32:23;;;;;;;13.07;10.43;;;17.40;99.90;;;;;;5052880;28;20072;-69
2023/07/22 11:34:52;;;;;;;14.45;11.20;;;17.50;99.90;;;;;;5052656;28;20037;-69
2023/07/22 11:37:19;;;;;;;12.52;9.95;;;17.40;99.90;;;;;;5034456;28;20059;-69
2023/07/22 11:39:46;;;;;;;11.73;10.27;;;17.40;99.90;;;;;;5052813;28;20041;-70
2023/07/22 11:42:12;;;;;;;12.75;11.02;;;17.40;99.90;;;;;;5052518;28;20045;-70
2023/07/22 11:44:39;;;;;;;14.82;11.07;;;17.30;99.90;;;;;;5018781;28;20119;-69
2023/07/22 11:47:38;;;;;;;11.90;9.80;;;17.30;99.90;;;;;;5034760;28;20051;-69
2023/07/22 11:50:05;;;;;;;11.63;8.65;;;17.40;99.90;;;;;;5034814;28;20102;-70
2023/07/22 11:52:32;;;;;;;10.20;8.75;;;17.30;99.90;;;;;;5018435;28;20060;-69
2023/07/22 11:55:03;;;;;;;10.15;9.15;;;17.30;99.90;;;;;;5035298;28;20119;-69
2023/07/22 11:57:29;;;;;;;10.73;9.20;;;17.20;99.90;;;;;;5043359;28;20446;-70
2023/07/22 11:59:56;;;;;;;10.27;8.90;;;17.10;99.90;;;;;;5032502;28;20049;-70
2023/07/22 12:02:24;;;;;;;10.18;8.90;;;16.90;99.90;;;;;;4998976;28;20053;-69
2023/07/22 12:04:53;;;;;;;9.55;8.55;;;16.80;99.90;;;;;;5015004;28;20059;-69
2023/07/22 12:07:27;;;;;;;10.23;7.55;;;16.70;99.90;;;;;;5023705;28;20063;-68
2023/07/22 12:09:55;;;;;;;8.85;6.82;;;16.70;99.90;;;;;;5034971;28;20060;-69
2023/07/22 12:12:34;;;;;;;9.13;6.57;;;16.70;99.90;;;;;;5052676;28;20361;-69
2023/07/22 12:15:17;;;;;;;8.52;6.55;;;16.70;99.90;;;;;;5051734;28;20397;-69
2023/07/22 12:17:50;;;;;;;10.05;6.10;;;16.70;99.90;;;;;;5041083;28;20049;-70
2023/07/22 12:20:17;;;;;;;6.78;5.68;;;16.80;99.90;;;;;;5045972;28;20443;-69
2023/07/22 12:22:45;;;;;;;8.45;5.28;;;16.80;99.90;;;;;;5018836;28;20063;-70
2023/07/22 12:25:11;;;;;;;7.88;5.60;;;16.70;99.90;;;;;;5052162;28;20040;-69
2023/07/22 12:27:38;;;;;;;9.65;5.50;;;16.80;99.90;;;;;;5041957;28;20115;-70
2023/07/22 12:30:05;;;;;;;7.70;4.88;;;16.70;99.90;;;;;;5031429;28;20865;-70
2023/07/22 12:32:31;;;;;;;6.95;4.88;;;16.70;99.90;;;;;;5031115;28;20115;-69
2023/07/22 12:34:59;;;;;;;6.15;4.20;;;16.70;99.90;;;;;;5031890;28;20057;-69
2023/07/22 12:37:28;;;;;;;5.75;4.22;;;16.70;99.90;;;;;;5024031;28;20052;-70
2023/07/22 12:39:54;;;;;;;6.40;4.78;;;16.70;99.90;;;;;;5051784;28;20072;-69